Baltimore, Maryland
Traffic Map
Current Weather Conditions
Baltimore, Maryland
Scattered Clouds
Scattered Clouds

Feels Like: -2°
Wind Chill: -2° Ceiling: Unl
Heat Index: Visibility: 10mi
Dew Point: -5° Wind: 17mph
Humidity: 55% Direction: 300° (WNW)
Pressure: 29.99in Gusts: 24mph
Raw Report DataKBWI 301454Z 30015G21KT 10SM FEW044 SCT080 SCT160 SCT250 03/M05 A2999 RMK AO2 SLP156 VIRGA N ACSL OHD AND ALQDS T00331050 51012
Traffic Incident Summary
Active as of:
Severity:
Category:
InformationThere was an issue retrieving the traffic information for this location. Please try a different location or try again shortly.
Advertisements
Track Severe Weather on mobile